sensor_id;sensor_type;location;lat;lon;timestamp;P1;durP1;ratioP1;P2;durP2;ratioP2
29500;SDS011;16450;50.288;10.966;2023-04-27T00:00:57;8.30;;;4.00;;
29500;SDS011;16450;50.288;10.966;2023-04-27T00:03:59;10.33;;;3.57;;
29500;SDS011;16450;50.288;10.966;2023-04-27T00:07:04;7.47;;;3.63;;
29500;SDS011;16450;50.288;10.966;2023-04-27T00:10:07;10.53;;;3.97;;
29500;SDS011;16450;50.288;10.966;2023-04-27T00:13:09;8.87;;;4.10;;
29500;SDS011;16450;50.288;10.966;2023-04-27T00:16:11;7.33;;;3.90;;
29500;SDS011;16450;50.288;10.966;2023-04-27T00:19:13;7.97;;;3.80;;
29500;SDS011;16450;50.288;10.966;2023-04-27T00:22:16;7.50;;;4.47;;
29500;SDS011;16450;50.288;10.966;2023-04-27T00:25:18;6.80;;;4.13;;
29500;SDS011;16450;50.288;10.966;2023-04-27T00:28:23;11.07;;;3.73;;
29500;SDS011;16450;50.288;10.966;2023-04-27T00:31:25;10.30;;;3.90;;
29500;SDS011;16450;50.288;10.966;2023-04-27T00:34:27;8.13;;;3.90;;
29500;SDS011;16450;50.288;10.966;2023-04-27T00:37:29;5.97;;;3.67;;
29500;SDS011;16450;50.288;10.966;2023-04-27T00:40:31;7.80;;;3.30;;
29500;SDS011;16450;50.288;10.966;2023-04-27T00:43:40;9.40;;;3.50;;
29500;SDS011;16450;50.288;10.966;2023-04-27T00:46:46;7.90;;;3.70;;
29500;SDS011;16450;50.288;10.966;2023-04-27T00:49:48;6.73;;;3.33;;
29500;SDS011;16450;50.288;10.966;2023-04-27T00:52:50;5.50;;;3.53;;
29500;SDS011;16450;50.288;10.966;2023-04-27T00:55:52;9.60;;;3.63;;
29500;SDS011;16450;50.288;10.966;2023-04-27T00:58:55;7.60;;;3.80;;
29500;SDS011;16450;50.288;10.966;2023-04-27T01:01:58;4.73;;;3.53;;
29500;SDS011;16450;50.288;10.966;2023-04-27T01:05:00;6.93;;;3.70;;
29500;SDS011;16450;50.288;10.966;2023-04-27T01:08:04;7.93;;;3.60;;
29500;SDS011;16450;50.288;10.966;2023-04-27T01:11:06;5.77;;;3.60;;
29500;SDS011;16450;50.288;10.966;2023-04-27T01:14:08;5.87;;;3.63;;
29500;SDS011;16450;50.288;10.966;2023-04-27T01:17:10;5.60;;;3.70;;
29500;SDS011;16450;50.288;10.966;2023-04-27T01:20:12;6.47;;;4.13;;
29500;SDS011;16450;50.288;10.966;2023-04-27T01:23:14;5.33;;;3.33;;
29500;SDS011;16450;50.288;10.966;2023-04-27T01:26:17;9.73;;;3.60;;
29500;SDS011;16450;50.288;10.966;2023-04-27T01:29:20;8.10;;;3.50;;
29500;SDS011;16450;50.288;10.966;2023-04-27T01:32:22;7.53;;;3.60;;
29500;SDS011;16450;50.288;10.966;2023-04-27T01:35:24;8.20;;;3.27;;
29500;SDS011;16450;50.288;10.966;2023-04-27T01:38:28;6.93;;;3.57;;
29500;SDS011;16450;50.288;10.966;2023-04-27T01:41:31;8.13;;;3.57;;
29500;SDS011;16450;50.288;10.966;2023-04-27T01:44:33;6.40;;;3.40;;
29500;SDS011;16450;50.288;10.966;2023-04-27T01:47:35;7.53;;;3.90;;
29500;SDS011;16450;50.288;10.966;2023-04-27T01:50:36;8.80;;;3.63;;
29500;SDS011;16450;50.288;10.966;2023-04-27T01:53:40;11.70;;;4.10;;
29500;SDS011;16450;50.288;10.966;2023-04-27T01:56:42;9.73;;;4.10;;
29500;SDS011;16450;50.288;10.966;2023-04-27T01:59:44;7.30;;;3.63;;
29500;SDS011;16450;50.288;10.966;2023-04-27T02:02:46;7.00;;;3.90;;
29500;SDS011;16450;50.288;10.966;2023-04-27T02:05:48;10.23;;;3.90;;
29500;SDS011;16450;50.288;10.966;2023-04-27T02:08:49;6.97;;;3.90;;
29500;SDS011;16450;50.288;10.966;2023-04-27T02:11:51;8.20;;;4.00;;
29500;SDS011;16450;50.288;10.966;2023-04-27T02:14:53;6.57;;;3.77;;
29500;SDS011;16450;50.288;10.966;2023-04-27T02:17:55;7.00;;;3.50;;
29500;SDS011;16450;50.288;10.966;2023-04-27T02:20:58;8.67;;;3.83;;
29500;SDS011;16450;50.288;10.966;2023-04-27T02:24:00;9.90;;;3.80;;
29500;SDS011;16450;50.288;10.966;2023-04-27T02:27:03;7.67;;;4.30;;
29500;SDS011;16450;50.288;10.966;2023-04-27T02:30:06;9.90;;;4.00;;
29500;SDS011;16450;50.288;10.966;2023-04-27T02:33:12;9.43;;;4.00;;
29500;SDS011;16450;50.288;10.966;2023-04-27T02:36:14;10.03;;;3.97;;
29500;SDS011;16450;50.288;10.966;2023-04-27T02:39:16;10.80;;;4.30;;
29500;SDS011;16450;50.288;10.966;2023-04-27T02:42:18;8.00;;;4.23;;
29500;SDS011;16450;50.288;10.966;2023-04-27T02:45:21;7.73;;;4.17;;
29500;SDS011;16450;50.288;10.966;2023-04-27T02:48:23;6.67;;;3.73;;
29500;SDS011;16450;50.288;10.966;2023-04-27T02:51:25;7.27;;;3.87;;
29500;SDS011;16450;50.288;10.966;2023-04-27T02:54:27;7.83;;;4.27;;
29500;SDS011;16450;50.288;10.966;2023-04-27T02:57:29;6.50;;;3.77;;
29500;SDS011;16450;50.288;10.966;2023-04-27T03:00:31;9.40;;;4.00;;
29500;SDS011;16450;50.288;10.966;2023-04-27T03:03:33;11.10;;;4.20;;
29500;SDS011;16450;50.288;10.966;2023-04-27T03:06:35;7.77;;;3.93;;
29500;SDS011;16450;50.288;10.966;2023-04-27T03:09:37;5.80;;;4.00;;
29500;SDS011;16450;50.288;10.966;2023-04-27T03:12:39;9.40;;;4.30;;
29500;SDS011;16450;50.288;10.966;2023-04-27T03:15:41;7.10;;;4.07;;
29500;SDS011;16450;50.288;10.966;2023-04-27T03:18:43;8.37;;;4.30;;
29500;SDS011;16450;50.288;10.966;2023-04-27T03:21:45;12.13;;;4.27;;
29500;SDS011;16450;50.288;10.966;2023-04-27T03:24:47;8.43;;;4.10;;
29500;SDS011;16450;50.288;10.966;2023-04-27T03:27:48;8.67;;;3.93;;
29500;SDS011;16450;50.288;10.966;2023-04-27T03:30:51;10.77;;;4.27;;
29500;SDS011;16450;50.288;10.966;2023-04-27T03:33:53;7.80;;;4.20;;
29500;SDS011;16450;50.288;10.966;2023-04-27T03:36:54;6.63;;;4.20;;
29500;SDS011;16450;50.288;10.966;2023-04-27T03:39:57;6.47;;;4.00;;
29500;SDS011;16450;50.288;10.966;2023-04-27T03:42:58;10.70;;;3.93;;
29500;SDS011;16450;50.288;10.966;2023-04-27T03:46:01;7.03;;;4.40;;
29500;SDS011;16450;50.288;10.966;2023-04-27T03:49:03;9.43;;;4.00;;
29500;SDS011;16450;50.288;10.966;2023-04-27T03:52:05;7.17;;;3.87;;
29500;SDS011;16450;50.288;10.966;2023-04-27T03:55:06;8.63;;;4.27;;
29500;SDS011;16450;50.288;10.966;2023-04-27T03:58:09;11.13;;;4.20;;
29500;SDS011;16450;50.288;10.966;2023-04-27T04:01:11;9.97;;;4.33;;
29500;SDS011;16450;50.288;10.966;2023-04-27T04:04:13;8.17;;;4.73;;
29500;SDS011;16450;50.288;10.966;2023-04-27T04:07:18;10.17;;;4.30;;
29500;SDS011;16450;50.288;10.966;2023-04-27T04:10:20;9.90;;;4.57;;
29500;SDS011;16450;50.288;10.966;2023-04-27T04:13:22;8.37;;;4.20;;
29500;SDS011;16450;50.288;10.966;2023-04-27T04:16:24;7.17;;;4.30;;
29500;SDS011;16450;50.288;10.966;2023-04-27T04:19:27;11.60;;;4.40;;
29500;SDS011;16450;50.288;10.966;2023-04-27T04:22:28;9.60;;;4.07;;
29500;SDS011;16450;50.288;10.966;2023-04-27T04:25:30;9.67;;;4.10;;
29500;SDS011;16450;50.288;10.966;2023-04-27T04:28:32;8.40;;;4.63;;
29500;SDS011;16450;50.288;10.966;2023-04-27T04:31:34;8.23;;;4.70;;
29500;SDS011;16450;50.288;10.966;2023-04-27T04:34:36;10.20;;;4.47;;
29500;SDS011;16450;50.288;10.966;2023-04-27T04:37:39;9.77;;;4.43;;
29500;SDS011;16450;50.288;10.966;2023-04-27T04:40:41;9.33;;;4.87;;
29500;SDS011;16450;50.288;10.966;2023-04-27T04:43:46;7.93;;;3.63;;
29500;SDS011;16450;50.288;10.966;2023-04-27T04:46:49;9.33;;;4.20;;
29500;SDS011;16450;50.288;10.966;2023-04-27T04:49:52;8.97;;;3.77;;
29500;SDS011;16450;50.288;10.966;2023-04-27T04:52:54;10.17;;;3.90;;
29500;SDS011;16450;50.288;10.966;2023-04-27T04:55:56;9.00;;;4.17;;
29500;SDS011;16450;50.288;10.966;2023-04-27T04:58:58;6.03;;;3.90;;
29500;SDS011;16450;50.288;10.966;2023-04-27T05:02:00;10.73;;;3.87;;
29500;SDS011;16450;50.288;10.966;2023-04-27T05:05:02;8.80;;;4.20;;
29500;SDS011;16450;50.288;10.966;2023-04-27T05:08:04;6.57;;;4.17;;
29500;SDS011;16450;50.288;10.966;2023-04-27T05:11:06;6.07;;;4.13;;
29500;SDS011;16450;50.288;10.966;2023-04-27T05:14:08;11.40;;;4.67;;
29500;SDS011;16450;50.288;10.966;2023-04-27T05:17:10;10.27;;;4.60;;
29500;SDS011;16450;50.288;10.966;2023-04-27T05:20:12;7.57;;;4.30;;
29500;SDS011;16450;50.288;10.966;2023-04-27T05:23:14;8.57;;;3.97;;
29500;SDS011;16450;50.288;10.966;2023-04-27T05:26:16;8.77;;;4.40;;
29500;SDS011;16450;50.288;10.966;2023-04-27T05:29:19;6.73;;;3.93;;
29500;SDS011;16450;50.288;10.966;2023-04-27T05:32:22;7.93;;;4.30;;
29500;SDS011;16450;50.288;10.966;2023-04-27T05:35:24;7.13;;;4.07;;
29500;SDS011;16450;50.288;10.966;2023-04-27T05:38:26;7.80;;;4.13;;
29500;SDS011;16450;50.288;10.966;2023-04-27T05:41:28;8.67;;;4.07;;
29500;SDS011;16450;50.288;10.966;2023-04-27T05:44:31;6.73;;;3.77;;
29500;SDS011;16450;50.288;10.966;2023-04-27T05:47:32;5.40;;;3.50;;
29500;SDS011;16450;50.288;10.966;2023-04-27T05:50:34;9.67;;;4.10;;
29500;SDS011;16450;50.288;10.966;2023-04-27T05:53:36;8.03;;;4.03;;
29500;SDS011;16450;50.288;10.966;2023-04-27T05:56:38;9.03;;;4.20;;
29500;SDS011;16450;50.288;10.966;2023-04-27T05:59:40;8.20;;;3.97;;
29500;SDS011;16450;50.288;10.966;2023-04-27T06:02:43;8.50;;;3.70;;
29500;SDS011;16450;50.288;10.966;2023-04-27T06:05:45;8.03;;;4.10;;
29500;SDS011;16450;50.288;10.966;2023-04-27T06:08:47;7.40;;;4.10;;
29500;SDS011;16450;50.288;10.966;2023-04-27T06:11:49;8.17;;;4.53;;
29500;SDS011;16450;50.288;10.966;2023-04-27T06:14:51;9.43;;;4.30;;
29500;SDS011;16450;50.288;10.966;2023-04-27T06:17:53;6.53;;;3.80;;
29500;SDS011;16450;50.288;10.966;2023-04-27T06:20:58;7.93;;;3.80;;
29500;SDS011;16450;50.288;10.966;2023-04-27T06:24:02;7.97;;;3.70;;
29500;SDS011;16450;50.288;10.966;2023-04-27T06:27:04;7.80;;;3.77;;
29500;SDS011;16450;50.288;10.966;2023-04-27T06:30:06;9.23;;;4.40;;
29500;SDS011;16450;50.288;10.966;2023-04-27T06:33:08;9.60;;;4.07;;
29500;SDS011;16450;50.288;10.966;2023-04-27T06:36:10;7.10;;;4.47;;
29500;SDS011;16450;50.288;10.966;2023-04-27T06:39:12;9.47;;;3.87;;
29500;SDS011;16450;50.288;10.966;2023-04-27T06:42:15;10.67;;;4.30;;
29500;SDS011;16450;50.288;10.966;2023-04-27T06:45:17;9.03;;;3.73;;
29500;SDS011;16450;50.288;10.966;2023-04-27T06:48:19;6.30;;;3.40;;
29500;SDS011;16450;50.288;10.966;2023-04-27T06:51:21;7.67;;;3.40;;
29500;SDS011;16450;50.288;10.966;2023-04-27T06:54:23;8.43;;;3.33;;
29500;SDS011;16450;50.288;10.966;2023-04-27T06:57:25;7.33;;;3.60;;
29500;SDS011;16450;50.288;10.966;2023-04-27T07:00:28;9.87;;;3.40;;
29500;SDS011;16450;50.288;10.966;2023-04-27T07:03:33;8.43;;;3.50;;
29500;SDS011;16450;50.288;10.966;2023-04-27T07:06:36;6.03;;;3.00;;
29500;SDS011;16450;50.288;10.966;2023-04-27T07:09:38;6.67;;;3.03;;
29500;SDS011;16450;50.288;10.966;2023-04-27T07:12:41;7.27;;;3.10;;
29500;SDS011;16450;50.288;10.966;2023-04-27T07:15:43;6.93;;;3.07;;
29500;SDS011;16450;50.288;10.966;2023-04-27T07:18:45;6.73;;;2.90;;
29500;SDS011;16450;50.288;10.966;2023-04-27T07:21:47;7.67;;;2.77;;
29500;SDS011;16450;50.288;10.966;2023-04-27T07:24:50;5.23;;;2.70;;
29500;SDS011;16450;50.288;10.966;2023-04-27T07:27:52;5.80;;;2.67;;
29500;SDS011;16450;50.288;10.966;2023-04-27T07:30:55;4.67;;;2.40;;
29500;SDS011;16450;50.288;10.966;2023-04-27T07:33:58;3.90;;;2.43;;
29500;SDS011;16450;50.288;10.966;2023-04-27T07:37:01;6.33;;;2.70;;
29500;SDS011;16450;50.288;10.966;2023-04-27T07:40:03;4.33;;;2.30;;
29500;SDS011;16450;50.288;10.966;2023-04-27T07:43:17;6.00;;;2.40;;
29500;SDS011;16450;50.288;10.966;2023-04-27T07:46:37;6.07;;;2.40;;
29500;SDS011;16450;50.288;10.966;2023-04-27T07:49:39;5.33;;;2.20;;
29500;SDS011;16450;50.288;10.966;2023-04-27T07:52:41;7.07;;;2.73;;
29500;SDS011;16450;50.288;10.966;2023-04-27T07:55:43;3.70;;;2.00;;
29500;SDS011;16450;50.288;10.966;2023-04-27T07:58:45;4.90;;;2.10;;
29500;SDS011;16450;50.288;10.966;2023-04-27T08:01:47;4.23;;;2.03;;
29500;SDS011;16450;50.288;10.966;2023-04-27T08:04:49;5.83;;;2.10;;
29500;SDS011;16450;50.288;10.966;2023-04-27T08:07:51;4.73;;;2.40;;
29500;SDS011;16450;50.288;10.966;2023-04-27T08:10:55;4.73;;;2.10;;
29500;SDS011;16450;50.288;10.966;2023-04-27T08:13:56;5.30;;;2.37;;
29500;SDS011;16450;50.288;10.966;2023-04-27T08:16:58;4.10;;;2.30;;
29500;SDS011;16450;50.288;10.966;2023-04-27T08:20:00;4.97;;;2.50;;
29500;SDS011;16450;50.288;10.966;2023-04-27T08:23:02;3.70;;;2.30;;
29500;SDS011;16450;50.288;10.966;2023-04-27T08:26:04;4.30;;;1.90;;
29500;SDS011;16450;50.288;10.966;2023-04-27T08:29:06;5.37;;;2.90;;
29500;SDS011;16450;50.288;10.966;2023-04-27T08:32:24;4.83;;;2.47;;
29500;SDS011;16450;50.288;10.966;2023-04-27T08:35:26;4.03;;;2.30;;
29500;SDS011;16450;50.288;10.966;2023-04-27T08:38:28;6.13;;;2.43;;
29500;SDS011;16450;50.288;10.966;2023-04-27T08:41:33;3.23;;;2.30;;
29500;SDS011;16450;50.288;10.966;2023-04-27T08:44:42;5.80;;;2.67;;
29500;SDS011;16450;50.288;10.966;2023-04-27T08:47:45;8.40;;;2.50;;
29500;SDS011;16450;50.288;10.966;2023-04-27T08:50:47;5.73;;;2.10;;
29500;SDS011;16450;50.288;10.966;2023-04-27T08:53:52;5.50;;;2.70;;
29500;SDS011;16450;50.288;10.966;2023-04-27T08:56:57;5.73;;;2.43;;
29500;SDS011;16450;50.288;10.966;2023-04-27T08:59:59;5.13;;;2.67;;
29500;SDS011;16450;50.288;10.966;2023-04-27T09:03:01;5.37;;;2.60;;
29500;SDS011;16450;50.288;10.966;2023-04-27T09:06:04;5.03;;;2.85;;
29500;SDS011;16450;50.288;10.966;2023-04-27T09:09:07;4.30;;;2.72;;
29500;SDS011;16450;50.288;10.966;2023-04-27T09:12:16;3.95;;;2.28;;
29500;SDS011;16450;50.288;10.966;2023-04-27T09:15:19;5.47;;;2.97;;
29500;SDS011;16450;50.288;10.966;2023-04-27T09:18:21;5.20;;;2.50;;
29500;SDS011;16450;50.288;10.966;2023-04-27T09:21:27;4.63;;;2.50;;
29500;SDS011;16450;50.288;10.966;2023-04-27T09:24:31;5.90;;;2.53;;
29500;SDS011;16450;50.288;10.966;2023-04-27T09:27:36;5.97;;;2.53;;
29500;SDS011;16450;50.288;10.966;2023-04-27T09:30:39;5.57;;;3.13;;
29500;SDS011;16450;50.288;10.966;2023-04-27T09:33:42;6.75;;;2.78;;
29500;SDS011;16450;50.288;10.966;2023-04-27T09:36:44;8.45;;;2.95;;
29500;SDS011;16450;50.288;10.966;2023-04-27T09:39:48;6.63;;;2.83;;
29500;SDS011;16450;50.288;10.966;2023-04-27T09:42:51;8.83;;;2.87;;
29500;SDS011;16450;50.288;10.966;2023-04-27T09:45:54;4.88;;;2.90;;
29500;SDS011;16450;50.288;10.966;2023-04-27T09:48:57;6.60;;;2.97;;
29500;SDS011;16450;50.288;10.966;2023-04-27T09:51:59;5.60;;;2.73;;
29500;SDS011;16450;50.288;10.966;2023-04-27T09:55:01;5.93;;;2.97;;
29500;SDS011;16450;50.288;10.966;2023-04-27T09:58:33;5.80;;;3.17;;
29500;SDS011;16450;50.288;10.966;2023-04-27T10:07:53;5.37;;;3.20;;
29500;SDS011;16450;50.288;10.966;2023-04-27T10:10:55;7.57;;;3.17;;
29500;SDS011;16450;50.288;10.966;2023-04-27T10:13:57;3.40;;;2.70;;
29500;SDS011;16450;50.288;10.966;2023-04-27T10:17:09;6.37;;;2.97;;
29500;SDS011;16450;50.288;10.966;2023-04-27T10:20:11;5.33;;;2.90;;
29500;SDS011;16450;50.288;10.966;2023-04-27T10:23:21;7.80;;;3.10;;
29500;SDS011;16450;50.288;10.966;2023-04-27T10:26:26;6.73;;;3.10;;
29500;SDS011;16450;50.288;10.966;2023-04-27T10:29:33;8.63;;;3.50;;
29500;SDS011;16450;50.288;10.966;2023-04-27T10:32:50;8.23;;;3.47;;
29500;SDS011;16450;50.288;10.966;2023-04-27T10:35:54;8.30;;;3.17;;
29500;SDS011;16450;50.288;10.966;2023-04-27T10:38:58;7.83;;;3.80;;
29500;SDS011;16450;50.288;10.966;2023-04-27T10:42:00;6.57;;;3.30;;
29500;SDS011;16450;50.288;10.966;2023-04-27T10:45:03;5.00;;;3.23;;
29500;SDS011;16450;50.288;10.966;2023-04-27T10:48:05;6.07;;;3.07;;
29500;SDS011;16450;50.288;10.966;2023-04-27T10:51:08;5.97;;;3.27;;
29500;SDS011;16450;50.288;10.966;2023-04-27T10:54:11;5.23;;;3.57;;
29500;SDS011;16450;50.288;10.966;2023-04-27T10:57:13;6.73;;;3.03;;
29500;SDS011;16450;50.288;10.966;2023-04-27T11:00:26;6.10;;;3.30;;
29500;SDS011;16450;50.288;10.966;2023-04-27T11:03:33;7.77;;;3.20;;
29500;SDS011;16450;50.288;10.966;2023-04-27T11:06:42;6.83;;;3.13;;
29500;SDS011;16450;50.288;10.966;2023-04-27T11:09:47;7.27;;;2.87;;
29500;SDS011;16450;50.288;10.966;2023-04-27T11:12:49;7.43;;;3.40;;
29500;SDS011;16450;50.288;10.966;2023-04-27T11:15:52;6.47;;;3.43;;
29500;SDS011;16450;50.288;10.966;2023-04-27T11:22:24;10.73;;;3.50;;
29500;SDS011;16450;50.288;10.966;2023-04-27T11:25:27;8.30;;;3.30;;
29500;SDS011;16450;50.288;10.966;2023-04-27T11:28:30;6.10;;;3.17;;
29500;SDS011;16450;50.288;10.966;2023-04-27T11:31:38;7.47;;;3.20;;
29500;SDS011;16450;50.288;10.966;2023-04-27T11:34:50;6.10;;;3.73;;
29500;SDS011;16450;50.288;10.966;2023-04-27T11:41:22;6.50;;;3.10;;
29500;SDS011;16450;50.288;10.966;2023-04-27T11:44:33;8.60;;;3.40;;
29500;SDS011;16450;50.288;10.966;2023-04-27T11:47:34;7.30;;;3.30;;
29500;SDS011;16450;50.288;10.966;2023-04-27T11:50:36;7.67;;;3.37;;
29500;SDS011;16450;50.288;10.966;2023-04-27T11:53:39;8.70;;;3.40;;
29500;SDS011;16450;50.288;10.966;2023-04-27T11:56:42;6.33;;;3.07;;
29500;SDS011;16450;50.288;10.966;2023-04-27T11:59:45;4.87;;;2.97;;
29500;SDS011;16450;50.288;10.966;2023-04-27T12:02:47;8.23;;;3.50;;
29500;SDS011;16450;50.288;10.966;2023-04-27T12:05:49;6.37;;;3.40;;
29500;SDS011;16450;50.288;10.966;2023-04-27T12:08:56;9.33;;;3.20;;
29500;SDS011;16450;50.288;10.966;2023-04-27T12:12:16;6.03;;;3.10;;
29500;SDS011;16450;50.288;10.966;2023-04-27T12:15:18;7.50;;;3.10;;
29500;SDS011;16450;50.288;10.966;2023-04-27T12:18:20;8.37;;;3.30;;
29500;SDS011;16450;50.288;10.966;2023-04-27T12:21:22;7.57;;;3.37;;
29500;SDS011;16450;50.288;10.966;2023-04-27T12:24:24;6.87;;;3.63;;
29500;SDS011;16450;50.288;10.966;2023-04-27T12:27:26;5.57;;;3.20;;
29500;SDS011;16450;50.288;10.966;2023-04-27T12:30:28;8.33;;;3.20;;
29500;SDS011;16450;50.288;10.966;2023-04-27T12:37:04;6.27;;;3.30;;
29500;SDS011;16450;50.288;10.966;2023-04-27T12:40:06;8.73;;;3.50;;
29500;SDS011;16450;50.288;10.966;2023-04-27T12:43:15;6.53;;;3.50;;
29500;SDS011;16450;50.288;10.966;2023-04-27T12:46:17;5.30;;;3.30;;
29500;SDS011;16450;50.288;10.966;2023-04-27T12:49:19;5.27;;;3.13;;
29500;SDS011;16450;50.288;10.966;2023-04-27T12:52:21;4.43;;;2.73;;
29500;SDS011;16450;50.288;10.966;2023-04-27T12:55:23;6.40;;;3.27;;
29500;SDS011;16450;50.288;10.966;2023-04-27T12:58:34;8.83;;;3.27;;
29500;SDS011;16450;50.288;10.966;2023-04-27T13:01:36;6.70;;;3.10;;
29500;SDS011;16450;50.288;10.966;2023-04-27T13:04:39;4.50;;;2.87;;
29500;SDS011;16450;50.288;10.966;2023-04-27T13:07:42;6.23;;;2.83;;
29500;SDS011;16450;50.288;10.966;2023-04-27T13:10:44;6.43;;;2.70;;
29500;SDS011;16450;50.288;10.966;2023-04-27T13:13:46;5.50;;;3.10;;
29500;SDS011;16450;50.288;10.966;2023-04-27T13:16:48;9.90;;;2.93;;
29500;SDS011;16450;50.288;10.966;2023-04-27T13:19:50;6.03;;;2.50;;
29500;SDS011;16450;50.288;10.966;2023-04-27T13:22:51;4.93;;;2.67;;
29500;SDS011;16450;50.288;10.966;2023-04-27T13:25:53;4.93;;;2.90;;
29500;SDS011;16450;50.288;10.966;2023-04-27T13:28:55;3.03;;;2.43;;
29500;SDS011;16450;50.288;10.966;2023-04-27T13:31:58;6.17;;;3.00;;
29500;SDS011;16450;50.288;10.966;2023-04-27T13:35:00;6.57;;;2.43;;
29500;SDS011;16450;50.288;10.966;2023-04-27T13:38:02;6.27;;;2.70;;
29500;SDS011;16450;50.288;10.966;2023-04-27T13:41:04;4.33;;;2.83;;
29500;SDS011;16450;50.288;10.966;2023-04-27T13:44:07;5.93;;;2.70;;
29500;SDS011;16450;50.288;10.966;2023-04-27T13:47:08;5.17;;;2.93;;
29500;SDS011;16450;50.288;10.966;2023-04-27T13:50:11;6.50;;;2.73;;
29500;SDS011;16450;50.288;10.966;2023-04-27T13:53:13;8.30;;;2.90;;
29500;SDS011;16450;50.288;10.966;2023-04-27T13:56:16;5.97;;;3.00;;
29500;SDS011;16450;50.288;10.966;2023-04-27T13:59:18;6.40;;;2.70;;
29500;SDS011;16450;50.288;10.966;2023-04-27T14:02:22;7.50;;;2.97;;
29500;SDS011;16450;50.288;10.966;2023-04-27T14:05:25;5.07;;;2.93;;
29500;SDS011;16450;50.288;10.966;2023-04-27T14:08:27;5.63;;;2.90;;
29500;SDS011;16450;50.288;10.966;2023-04-27T14:11:29;6.13;;;2.60;;
29500;SDS011;16450;50.288;10.966;2023-04-27T14:14:35;4.00;;;2.37;;
29500;SDS011;16450;50.288;10.966;2023-04-27T14:17:37;7.40;;;2.47;;
29500;SDS011;16450;50.288;10.966;2023-04-27T14:20:39;6.07;;;2.70;;
29500;SDS011;16450;50.288;10.966;2023-04-27T14:23:42;6.07;;;2.60;;
29500;SDS011;16450;50.288;10.966;2023-04-27T14:26:44;4.83;;;2.70;;
29500;SDS011;16450;50.288;10.966;2023-04-27T14:29:50;4.30;;;2.70;;
29500;SDS011;16450;50.288;10.966;2023-04-27T14:32:52;5.90;;;2.80;;
29500;SDS011;16450;50.288;10.966;2023-04-27T14:35:54;4.77;;;2.60;;
29500;SDS011;16450;50.288;10.966;2023-04-27T14:38:57;5.50;;;3.00;;
29500;SDS011;16450;50.288;10.966;2023-04-27T14:41:59;5.63;;;2.73;;
29500;SDS011;16450;50.288;10.966;2023-04-27T14:45:00;8.60;;;2.77;;
29500;SDS011;16450;50.288;10.966;2023-04-27T14:48:02;4.97;;;2.83;;
29500;SDS011;16450;50.288;10.966;2023-04-27T14:51:04;5.70;;;2.60;;
29500;SDS011;16450;50.288;10.966;2023-04-27T14:54:07;5.77;;;2.60;;
29500;SDS011;16450;50.288;10.966;2023-04-27T14:57:09;4.10;;;2.50;;
29500;SDS011;16450;50.288;10.966;2023-04-27T15:00:11;4.53;;;2.50;;
29500;SDS011;16450;50.288;10.966;2023-04-27T15:03:14;4.87;;;2.60;;
29500;SDS011;16450;50.288;10.966;2023-04-27T15:06:17;9.13;;;2.90;;
29500;SDS011;16450;50.288;10.966;2023-04-27T15:09:19;6.23;;;3.00;;
29500;SDS011;16450;50.288;10.966;2023-04-27T15:12:21;5.20;;;2.90;;
29500;SDS011;16450;50.288;10.966;2023-04-27T15:15:23;4.50;;;2.63;;
29500;SDS011;16450;50.288;10.966;2023-04-27T15:18:26;6.47;;;2.80;;
29500;SDS011;16450;50.288;10.966;2023-04-27T15:21:28;9.97;;;2.97;;
29500;SDS011;16450;50.288;10.966;2023-04-27T15:24:31;7.30;;;2.63;;
29500;SDS011;16450;50.288;10.966;2023-04-27T15:27:33;6.63;;;2.73;;
29500;SDS011;16450;50.288;10.966;2023-04-27T15:30:36;6.97;;;3.17;;
29500;SDS011;16450;50.288;10.966;2023-04-27T15:33:38;6.47;;;3.00;;
29500;SDS011;16450;50.288;10.966;2023-04-27T15:36:40;5.47;;;2.70;;
29500;SDS011;16450;50.288;10.966;2023-04-27T15:39:42;5.33;;;2.67;;
29500;SDS011;16450;50.288;10.966;2023-04-27T15:42:45;10.97;;;3.00;;
29500;SDS011;16450;50.288;10.966;2023-04-27T15:45:47;7.03;;;2.80;;
29500;SDS011;16450;50.288;10.966;2023-04-27T15:48:58;4.87;;;2.70;;
29500;SDS011;16450;50.288;10.966;2023-04-27T15:52:00;5.10;;;2.80;;
29500;SDS011;16450;50.288;10.966;2023-04-27T15:55:03;6.37;;;2.93;;
29500;SDS011;16450;50.288;10.966;2023-04-27T15:58:05;5.27;;;2.60;;
29500;SDS011;16450;50.288;10.966;2023-04-27T16:01:06;5.10;;;2.70;;
29500;SDS011;16450;50.288;10.966;2023-04-27T16:04:08;5.03;;;2.67;;
29500;SDS011;16450;50.288;10.966;2023-04-27T16:07:10;5.83;;;2.90;;
29500;SDS011;16450;50.288;10.966;2023-04-27T16:10:12;6.73;;;2.83;;
29500;SDS011;16450;50.288;10.966;2023-04-27T16:13:14;5.40;;;2.50;;
29500;SDS011;16450;50.288;10.966;2023-04-27T16:16:16;4.47;;;2.63;;
29500;SDS011;16450;50.288;10.966;2023-04-27T16:19:18;6.20;;;2.40;;
29500;SDS011;16450;50.288;10.966;2023-04-27T16:22:21;6.30;;;2.67;;
29500;SDS011;16450;50.288;10.966;2023-04-27T16:25:23;8.13;;;3.03;;
29500;SDS011;16450;50.288;10.966;2023-04-27T16:28:25;10.17;;;4.97;;
29500;SDS011;16450;50.288;10.966;2023-04-27T16:31:27;5.13;;;2.67;;
29500;SDS011;16450;50.288;10.966;2023-04-27T16:34:29;6.67;;;2.57;;
29500;SDS011;16450;50.288;10.966;2023-04-27T16:37:30;6.73;;;2.87;;
29500;SDS011;16450;50.288;10.966;2023-04-27T16:40:33;5.30;;;2.87;;
29500;SDS011;16450;50.288;10.966;2023-04-27T16:43:34;6.33;;;2.57;;
29500;SDS011;16450;50.288;10.966;2023-04-27T16:46:36;6.27;;;2.53;;
29500;SDS011;16450;50.288;10.966;2023-04-27T16:49:40;5.03;;;2.77;;
29500;SDS011;16450;50.288;10.966;2023-04-27T16:52:42;4.73;;;2.43;;
29500;SDS011;16450;50.288;10.966;2023-04-27T16:55:44;7.87;;;3.20;;
29500;SDS011;16450;50.288;10.966;2023-04-27T16:58:46;6.43;;;3.63;;
29500;SDS011;16450;50.288;10.966;2023-04-27T17:01:48;8.17;;;3.10;;
29500;SDS011;16450;50.288;10.966;2023-04-27T17:04:52;8.47;;;2.77;;
29500;SDS011;16450;50.288;10.966;2023-04-27T17:07:54;7.93;;;2.60;;
29500;SDS011;16450;50.288;10.966;2023-04-27T17:10:56;4.10;;;3.00;;
29500;SDS011;16450;50.288;10.966;2023-04-27T17:13:58;11.00;;;6.37;;
29500;SDS011;16450;50.288;10.966;2023-04-27T17:17:00;12.80;;;6.43;;
29500;SDS011;16450;50.288;10.966;2023-04-27T17:20:02;9.57;;;4.40;;
29500;SDS011;16450;50.288;10.966;2023-04-27T17:23:06;7.17;;;4.10;;
29500;SDS011;16450;50.288;10.966;2023-04-27T17:26:08;10.73;;;6.20;;
29500;SDS011;16450;50.288;10.966;2023-04-27T17:29:10;7.37;;;4.70;;
29500;SDS011;16450;50.288;10.966;2023-04-27T17:32:13;23.30;;;12.33;;
29500;SDS011;16450;50.288;10.966;2023-04-27T17:35:15;16.50;;;8.67;;
29500;SDS011;16450;50.288;10.966;2023-04-27T17:38:20;8.27;;;4.77;;
29500;SDS011;16450;50.288;10.966;2023-04-27T17:41:22;6.07;;;3.87;;
29500;SDS011;16450;50.288;10.966;2023-04-27T17:44:24;7.23;;;3.77;;
29500;SDS011;16450;50.288;10.966;2023-04-27T17:47:26;8.93;;;3.50;;
29500;SDS011;16450;50.288;10.966;2023-04-27T17:50:28;6.47;;;3.70;;
29500;SDS011;16450;50.288;10.966;2023-04-27T17:53:31;9.73;;;3.87;;
29500;SDS011;16450;50.288;10.966;2023-04-27T17:56:33;5.60;;;3.13;;
29500;SDS011;16450;50.288;10.966;2023-04-27T17:59:35;8.37;;;4.50;;
29500;SDS011;16450;50.288;10.966;2023-04-27T18:02:37;11.87;;;4.63;;
29500;SDS011;16450;50.288;10.966;2023-04-27T18:05:40;12.57;;;4.53;;
29500;SDS011;16450;50.288;10.966;2023-04-27T18:08:42;6.63;;;3.17;;
29500;SDS011;16450;50.288;10.966;2023-04-27T18:11:43;5.77;;;3.60;;
29500;SDS011;16450;50.288;10.966;2023-04-27T18:14:45;5.07;;;3.30;;
29500;SDS011;16450;50.288;10.966;2023-04-27T18:17:48;7.80;;;3.50;;
29500;SDS011;16450;50.288;10.966;2023-04-27T18:20:50;8.77;;;2.53;;